Portada
METAR-TAF:

METAR-TAF

Aeropuertos :

Base Aérea de Armilla

Granada, España

latitud: 37-08N, longitud: 003-38-08W, altitud: 700 m

Observación

El informe se hizo hace 9 horas y 41 minutos, a las 13:00 UTC
Viento 8 kt con dirección variable
Temperatura 26°C
Humedad 24%
Presión 1018 hPa
Visibilidad 10 km o más
Escasas nubes a una altura de 8000 ft

METAR: LEGA 061300Z VRB08KT 9999 FEW080 26/04 Q1018

Hora: 00:41 (22:41 UTC)

Pronóstico

El informe se hizo hace 5 horas y 41 minutos, a las 17:00 UTC
Pronóstico válido del 06 a las 18 UTC al 07 a las 18 UTC
Viento 3 kt con dirección variable
Visibilidad 10 km o más
sin nubes por debajo de 1500 m y sin presencia de cumulonimbus.
Evolucionando progresivamente
del 07 a las 14 UTC al 07 a las 16 UTC
Viento 10 kt del sur

TAF: LEGA 061700Z 0618/0718 VRB03KT CAVOK TX28/0715Z TN12/0705Z BECMG 0714/0716 19010KT

Observaciones y pronósticos meteorológicos de más de 4000 aeropuertos (mensajes METAR y TAF).

Los puntos amarillos y rojos representan las estaciones disponibles.

Ponga el ratón en el punto deseado para ver el nombre de la estación.

Haga clic para ver las observaciones y los pronósticos meteorológicos.

Para cambiar el mapa : haga clic en los botones verdes con una cruz de color negro para hacer un zoom, en el botón verde con un guión para alejar o en las flechas verdes para mapas adyacentes.


METAR-TAF: